Time;durP1;ratioP1;P1;durP2;ratioP2;P2;SDS_P1;SDS_P2;PMS_P1;PMS_P2;Temp;Humidity;BMP_temperature;BMP_pressure;BME280_temperature;BME280_humidity;BME280_pressure;Samples;Min_cycle;Max_cycle;Signal;HPM_P1;HPM_P2
2022/08/03 00:02:22;;;;;;;9.90;2.40;;;20.30;99.90;;;;;;5094573;28;20055;-75
2022/08/03 00:04:47;;;;;;;10.15;2.80;;;20.30;99.90;;;;;;5093338;28;20040;-75
2022/08/03 00:07:13;;;;;;;7.30;2.72;;;20.20;99.90;;;;;;5094869;28;20040;-75
2022/08/03 00:09:39;;;;;;;5.75;2.45;;;20.30;99.90;;;;;;5094265;28;20601;-75
2022/08/03 00:12:05;;;;;;;9.82;2.70;;;20.20;99.90;;;;;;5094655;28;20123;-75
2022/08/03 00:14:30;;;;;;;11.52;2.63;;;20.20;99.90;;;;;;5094496;28;20044;-75
2022/08/03 00:16:56;;;;;;;7.32;2.58;;;20.20;99.90;;;;;;5094486;28;20553;-75
2022/08/03 00:19:22;;;;;;;10.52;2.50;;;20.20;99.90;;;;;;5092920;28;20048;-75
2022/08/03 00:21:48;;;;;;;9.38;2.47;;;20.10;99.90;;;;;;5093397;28;20176;-75
2022/08/03 00:24:14;;;;;;;8.18;2.67;;;20.10;99.90;;;;;;5094435;28;20044;-75
2022/08/03 00:26:39;;;;;;;8.02;2.53;;;20.10;99.90;;;;;;5094296;28;20040;-75
2022/08/03 00:29:05;;;;;;;8.18;2.50;;;20.10;99.90;;;;;;5094350;28;20050;-75
2022/08/03 00:31:30;;;;;;;7.90;2.53;;;20.10;99.90;;;;;;5093985;28;20397;-75
2022/08/03 00:33:56;;;;;;;10.38;2.92;;;20.10;99.90;;;;;;5092965;28;20052;-75
2022/08/03 00:36:22;;;;;;;8.10;2.60;;;20.00;99.90;;;;;;5094181;28;20115;-75
2022/08/03 00:38:47;;;;;;;9.00;2.72;;;20.10;99.90;;;;;;5092657;28;20078;-75
2022/08/03 00:41:13;;;;;;;9.45;3.13;;;20.00;99.90;;;;;;5092689;28;20044;-75
2022/08/03 00:43:39;;;;;;;8.15;2.60;;;20.00;99.90;;;;;;5093981;28;20044;-75
2022/08/03 00:46:04;;;;;;;10.00;2.88;;;20.00;99.90;;;;;;5091481;28;20492;-75
2022/08/03 00:48:30;;;;;;;10.90;2.90;;;20.00;99.90;;;;;;5092833;28;20040;-75
2022/08/03 00:50:56;;;;;;;8.50;2.78;;;20.00;99.90;;;;;;5093732;28;20477;-75
2022/08/03 00:53:22;;;;;;;11.95;2.90;;;20.00;99.90;;;;;;5092316;28;20407;-75
2022/08/03 00:55:48;;;;;;;9.10;2.72;;;20.10;99.90;;;;;;5093710;28;20408;-75
2022/08/03 00:58:14;;;;;;;9.05;2.97;;;20.50;99.90;;;;;;5093592;28;20047;-75
2022/08/03 01:00:40;;;;;;;11.43;2.85;;;20.00;99.90;;;;;;5090275;28;20163;-75
2022/08/03 01:03:07;;;;;;;8.50;3.00;;;20.00;99.90;;;;;;5092109;28;20048;-75
2022/08/03 01:05:43;;;;;;;8.98;2.47;;;20.00;99.90;;;;;;5093493;28;20048;-75
2022/08/03 01:08:14;;;;;;;10.77;3.10;;;19.90;99.90;;;;;;5093728;28;20199;-75
2022/08/03 01:11:16;;;;;;;8.55;2.50;;;19.90;99.90;;;;;;5092466;28;20052;-75
2022/08/03 01:14:19;;;;;;;7.65;2.60;;;19.90;99.90;;;;;;5060091;28;20534;-75
2022/08/03 01:17:03;;;;;;;8.73;2.60;;;19.80;99.90;;;;;;5093355;28;20043;-75
2022/08/03 01:19:35;;;;;;;10.18;2.75;;;19.80;99.90;;;;;;5093127;28;20044;-75
2022/08/03 01:22:04;;;;;;;9.55;2.25;;;19.70;99.90;;;;;;5089928;28;20120;-75
2022/08/03 01:24:45;;;;;;;7.40;2.20;;;19.80;99.90;;;;;;5090200;28;20044;-75
2022/08/03 01:27:28;;;;;;;6.78;2.25;;;19.80;99.90;;;;;;5092095;28;20117;-75
2022/08/03 01:30:03;;;;;;;6.07;2.50;;;19.70;99.90;;;;;;5091205;28;20036;-75
2022/08/03 01:32:53;;;;;;;7.57;2.80;;;19.70;99.90;;;;;;5091254;28;20067;-75
2022/08/03 01:35:28;;;;;;;9.52;2.60;;;19.70;99.90;;;;;;5091703;28;20048;-75
2022/08/03 01:38:04;;;;;;;13.38;2.55;;;19.60;99.90;;;;;;5093175;28;20040;-75
2022/08/03 01:40:33;;;;;;;9.38;2.40;;;19.60;99.90;;;;;;5092115;28;20044;-75
2022/08/03 01:43:00;;;;;;;8.63;2.20;;;19.60;99.90;;;;;;5092954;28;20397;-75
2022/08/03 01:45:27;;;;;;;11.07;2.45;;;19.60;99.90;;;;;;5091595;28;20056;-75
2022/08/03 01:47:53;;;;;;;9.80;2.22;;;19.50;99.90;;;;;;5091895;28;20054;-75
2022/08/03 01:50:26;;;;;;;9.13;2.38;;;19.50;99.90;;;;;;5093001;28;20040;-75
2022/08/03 01:52:55;;;;;;;9.20;2.50;;;19.50;99.90;;;;;;5091397;28;20048;-75
2022/08/03 01:55:22;;;;;;;7.45;2.33;;;19.60;99.90;;;;;;5092788;28;20040;-75
2022/08/03 01:57:49;;;;;;;10.57;2.50;;;19.50;99.90;;;;;;5091225;28;20055;-75
2022/08/03 02:00:15;;;;;;;7.88;2.50;;;20.10;99.90;;;;;;5092793;28;20048;-75
2022/08/03 02:02:44;;;;;;;10.30;2.38;;;19.50;99.90;;;;;;5091184;28;20508;-75
2022/08/03 02:05:12;;;;;;;10.50;2.70;;;19.40;99.90;;;;;;5091413;28;20048;-75
2022/08/03 02:07:40;;;;;;;6.18;2.20;;;19.40;99.90;;;;;;5091234;28;20044;-75
2022/08/03 02:10:07;;;;;;;10.32;2.55;;;19.50;99.90;;;;;;5092984;28;20036;-75
2022/08/03 02:12:35;;;;;;;6.47;2.15;;;19.40;99.90;;;;;;5092462;28;20044;-76
2022/08/03 02:15:02;;;;;;;8.85;2.20;;;19.40;99.90;;;;;;5092785;28;20111;-75
2022/08/03 02:17:29;;;;;;;5.82;1.98;;;19.40;99.90;;;;;;5092009;28;20051;-75
2022/08/03 02:19:57;;;;;;;10.57;2.25;;;19.40;99.90;;;;;;5090653;28;20040;-75
2022/08/03 02:22:24;;;;;;;7.00;2.00;;;19.40;99.90;;;;;;5090298;28;20051;-75
2022/08/03 02:24:50;;;;;;;8.52;2.40;;;19.40;99.90;;;;;;5092146;28;20068;-75
2022/08/03 02:27:26;;;;;;;7.00;2.22;;;19.30;99.90;;;;;;5090910;28;20528;-75
2022/08/03 02:30:00;;;;;;;6.45;2.28;;;19.40;99.90;;;;;;5092341;28;20177;-75
2022/08/03 02:32:33;;;;;;;8.65;2.40;;;19.40;99.90;;;;;;5092412;28;20052;-75
2022/08/03 02:35:01;;;;;;;8.25;2.25;;;19.40;99.90;;;;;;5096180;28;20408;-75
2022/08/03 02:37:31;;;;;;;6.47;2.30;;;19.40;99.90;;;;;;5094748;28;20079;-75
2022/08/03 02:40:04;;;;;;;10.63;2.50;;;19.40;99.90;;;;;;5094947;28;20496;-75
2022/08/03 02:42:33;;;;;;;8.60;2.72;;;19.40;99.90;;;;;;5096180;28;20039;-76
2022/08/03 02:45:03;;;;;;;10.77;2.42;;;19.30;99.90;;;;;;5096215;28;20048;-75
2022/08/03 02:47:31;;;;;;;7.88;2.25;;;19.30;99.90;;;;;;5096044;28;20035;-75
2022/08/03 02:49:58;;;;;;;6.45;2.38;;;19.30;99.90;;;;;;5096276;28;20052;-75
2022/08/03 02:52:27;;;;;;;9.95;2.30;;;19.60;99.90;;;;;;5128727;27;20055;-75
2022/08/03 02:54:57;;;;;;;8.73;2.30;;;19.30;99.90;;;;;;5094820;28;20404;-75
2022/08/03 02:57:25;;;;;;;7.47;2.35;;;19.30;99.90;;;;;;5095951;28;20439;-75
2022/08/03 02:59:52;;;;;;;7.30;2.17;;;19.20;99.90;;;;;;5094900;28;20056;-76
2022/08/03 03:02:19;;;;;;;8.85;2.25;;;19.20;99.90;;;;;;5095789;28;20044;-76
2022/08/03 03:04:45;;;;;;;9.98;2.75;;;19.30;99.90;;;;;;5095664;28;20062;-75
2022/08/03 03:07:13;;;;;;;7.35;2.58;;;19.80;99.90;;;;;;5094403;28;20109;-75
2022/08/03 03:09:39;;;;;;;9.02;2.22;;;19.20;99.90;;;;;;5094388;28;20048;-76
2022/08/03 03:12:07;;;;;;;8.68;2.40;;;19.20;99.90;;;;;;5094579;28;20202;-75
2022/08/03 03:14:35;;;;;;;9.93;2.92;;;19.20;99.90;;;;;;5095695;28;20063;-76
2022/08/03 03:17:01;;;;;;;8.13;2.40;;;19.60;99.90;;;;;;5095599;28;20044;-76
2022/08/03 03:19:27;;;;;;;9.70;2.30;;;19.10;99.90;;;;;;5095397;28;20048;-76
2022/08/03 03:21:55;;;;;;;7.10;2.50;;;19.40;99.90;;;;;;5094320;28;20052;-75
2022/08/03 03:24:21;;;;;;;8.88;2.40;;;19.20;99.90;;;;;;5095024;28;20529;-76
2022/08/03 03:26:47;;;;;;;9.00;2.53;;;19.10;99.90;;;;;;5093154;28;20083;-75
2022/08/03 03:29:14;;;;;;;8.68;2.60;;;19.40;99.90;;;;;;5095375;28;20036;-76
2022/08/03 03:31:40;;;;;;;12.35;3.15;;;19.10;99.90;;;;;;5093805;28;20468;-75
2022/08/03 03:34:06;;;;;;;10.55;2.70;;;19.00;99.90;;;;;;5093953;28;20044;-76
2022/08/03 03:36:32;;;;;;;11.60;2.60;;;19.30;99.90;;;;;;5095669;28;20071;-76
2022/08/03 03:38:57;;;;;;;6.72;2.42;;;19.00;99.90;;;;;;5094011;28;20373;-75
2022/08/03 03:41:23;;;;;;;7.95;2.63;;;19.00;99.90;;;;;;5095302;28;20042;-76
2022/08/03 03:43:49;;;;;;;12.45;2.50;;;19.50;99.90;;;;;;5094218;28;20060;-76
2022/08/03 03:46:15;;;;;;;7.72;2.60;;;19.00;99.90;;;;;;5095020;28;20044;-76
2022/08/03 03:48:41;;;;;;;10.35;2.80;;;19.00;99.90;;;;;;5127903;27;20535;-75
2022/08/03 03:51:08;;;;;;;9.05;2.60;;;19.00;99.90;;;;;;5093806;28;20039;-76
2022/08/03 03:53:34;;;;;;;9.23;2.80;;;19.00;99.90;;;;;;5094741;28;20186;-76
2022/08/03 03:55:59;;;;;;;10.32;2.72;;;18.90;99.90;;;;;;5093776;28;20132;-76
2022/08/03 03:58:25;;;;;;;9.63;2.70;;;19.40;99.90;;;;;;5094707;28;20040;-76
2022/08/03 04:00:52;;;;;;;7.85;2.45;;;19.30;99.90;;;;;;5094592;28;20104;-76
2022/08/03 04:03:18;;;;;;;10.48;3.00;;;18.90;99.90;;;;;;5094496;28;20139;-76
2022/08/03 04:11:17;;;;;;;10.07;2.72;;;18.80;99.90;;;;;;5094616;28;20044;-75
2022/08/03 04:13:57;;;;;;;12.27;2.67;;;18.90;99.90;;;;;;5093187;28;20047;-75
2022/08/03 04:16:27;;;;;;;9.48;2.85;;;18.80;99.90;;;;;;5127205;27;20131;-76
2022/08/03 04:18:59;;;;;;;5.82;2.63;;;18.80;99.90;;;;;;5094253;28;20492;-76
2022/08/03 04:21:27;;;;;;;6.22;2.50;;;18.90;99.90;;;;;;5093078;28;20055;-76
2022/08/03 04:23:57;;;;;;;10.10;3.15;;;18.80;99.90;;;;;;5094132;28;20154;-76
2022/08/03 04:26:26;;;;;;;9.63;3.20;;;18.80;99.90;;;;;;5094283;28;20044;-76
2022/08/03 04:28:53;;;;;;;9.10;3.03;;;19.20;99.90;;;;;;5092900;28;20128;-76
2022/08/03 04:31:21;;;;;;;9.85;3.42;;;18.70;99.90;;;;;;5093604;28;20060;-75
2022/08/03 04:33:49;;;;;;;10.32;3.38;;;18.70;99.90;;;;;;5094058;28;20052;-76
2022/08/03 04:36:19;;;;;;;9.38;2.88;;;18.70;99.90;;;;;;5092863;28;20405;-76
2022/08/03 04:39:13;;;;;;;7.68;2.90;;;18.70;99.90;;;;;;5092606;28;20480;-76
2022/08/03 04:41:40;;;;;;;10.38;3.22;;;18.80;99.90;;;;;;5078085;28;20130;-76
2022/08/03 04:44:06;;;;;;;10.48;3.08;;;18.70;99.90;;;;;;5093632;28;20044;-75
2022/08/03 04:46:35;;;;;;;6.95;2.90;;;18.70;99.90;;;;;;5092053;28;20048;-76
2022/08/03 04:49:02;;;;;;;8.88;3.03;;;18.70;99.90;;;;;;5092270;28;20052;-76
2022/08/03 04:51:28;;;;;;;7.10;3.00;;;18.70;99.90;;;;;;5092341;28;20081;-76
2022/08/03 04:53:54;;;;;;;10.63;3.00;;;18.80;99.90;;;;;;5093328;28;20044;-76
2022/08/03 04:56:19;;;;;;;7.72;2.70;;;18.70;99.90;;;;;;5093430;28;20040;-76
2022/08/03 04:58:45;;;;;;;15.05;3.05;;;19.00;99.90;;;;;;5093559;28;20373;-76
2022/08/03 05:01:10;;;;;;;10.05;3.20;;;18.70;99.90;;;;;;5093491;28;20047;-76
2022/08/03 05:03:36;;;;;;;9.93;3.13;;;18.70;99.90;;;;;;5093478;28;20094;-76
2022/08/03 05:06:02;;;;;;;13.00;3.25;;;18.80;99.90;;;;;;5092371;28;20051;-76
2022/08/03 05:08:28;;;;;;;11.68;3.00;;;18.80;99.90;;;;;;5093322;28;20051;-76
2022/08/03 05:10:54;;;;;;;12.52;3.40;;;18.80;99.90;;;;;;5093345;28;20536;-76
2022/08/03 05:13:19;;;;;;;10.27;3.50;;;18.80;99.90;;;;;;5092012;28;20132;-76
2022/08/03 05:15:45;;;;;;;10.70;3.05;;;18.80;99.90;;;;;;5093474;28;20131;-76
2022/08/03 05:18:11;;;;;;;9.88;2.65;;;19.30;99.90;;;;;;5093229;28;20393;-75
2022/08/03 05:20:36;;;;;;;13.13;3.20;;;18.90;99.90;;;;;;5091090;28;20036;-76
2022/08/03 05:23:02;;;;;;;13.82;3.17;;;18.90;99.90;;;;;;5092366;28;20127;-76
2022/08/03 05:25:28;;;;;;;12.73;3.38;;;19.00;99.90;;;;;;5092926;28;20412;-76
2022/08/03 05:27:54;;;;;;;12.55;3.15;;;19.00;99.90;;;;;;5074836;28;20048;-76
2022/08/03 05:30:20;;;;;;;6.95;2.95;;;19.00;99.90;;;;;;5091624;28;20075;-75
2022/08/03 05:32:45;;;;;;;9.50;3.22;;;19.10;99.90;;;;;;5125482;27;20039;-76
2022/08/03 05:35:11;;;;;;;11.73;3.25;;;19.10;99.90;;;;;;5091800;28;20110;-76
2022/08/03 05:37:37;;;;;;;11.88;3.08;;;19.10;99.90;;;;;;5092650;28;20042;-76
2022/08/03 05:40:04;;;;;;;10.93;3.20;;;19.10;99.90;;;;;;5093109;28;20040;-76
2022/08/03 05:42:29;;;;;;;8.70;3.20;;;19.20;99.90;;;;;;5092754;28;20384;-76
2022/08/03 05:44:55;;;;;;;10.23;3.58;;;19.20;99.90;;;;;;5092521;28;20036;-76
2022/08/03 05:47:20;;;;;;;10.10;3.28;;;19.20;99.90;;;;;;5125268;27;20059;-76
2022/08/03 05:49:46;;;;;;;11.93;3.42;;;19.30;99.90;;;;;;5091523;28;20500;-76
2022/08/03 05:52:12;;;;;;;8.20;3.20;;;19.30;99.90;;;;;;5092819;28;20043;-76
2022/08/03 05:54:37;;;;;;;10.55;3.30;;;19.40;99.90;;;;;;5092233;28;20096;-76
2022/08/03 05:57:03;;;;;;;11.93;3.30;;;19.40;99.90;;;;;;5090170;28;20123;-76
2022/08/03 05:59:29;;;;;;;10.02;3.30;;;19.40;99.90;;;;;;5091025;28;20087;-76
2022/08/03 06:01:54;;;;;;;14.60;3.75;;;19.50;99.90;;;;;;5091522;28;20199;-75
2022/08/03 06:04:20;;;;;;;12.68;3.38;;;19.50;99.90;;;;;;5091127;28;20457;-76
2022/08/03 06:06:47;;;;;;;12.90;3.50;;;19.60;99.90;;;;;;5092990;28;20052;-76
2022/08/03 06:09:12;;;;;;;10.85;3.53;;;19.70;99.90;;;;;;5095226;28;20062;-76
2022/08/03 06:11:39;;;;;;;12.00;3.88;;;19.70;99.90;;;;;;5096753;28;20039;-76
2022/08/03 06:14:05;;;;;;;10.45;3.20;;;19.80;99.90;;;;;;5094930;28;20044;-76
2022/08/03 06:16:31;;;;;;;8.98;3.30;;;19.80;99.90;;;;;;5096616;28;20449;-76
2022/08/03 06:18:56;;;;;;;15.88;3.30;;;19.80;99.90;;;;;;5096663;28;20040;-76
2022/08/03 06:21:22;;;;;;;12.70;3.50;;;19.90;99.90;;;;;;5096695;28;20393;-76
2022/08/03 06:23:47;;;;;;;10.60;3.47;;;19.90;99.90;;;;;;5096325;28;20040;-76
2022/08/03 06:26:13;;;;;;;12.85;3.28;;;19.90;99.90;;;;;;5096487;28;20040;-76
2022/08/03 06:28:39;;;;;;;12.45;3.17;;;20.00;99.90;;;;;;5096564;28;20043;-77
2022/08/03 06:31:05;;;;;;;10.20;3.15;;;20.00;99.90;;;;;;5096020;28;20056;-77
2022/08/03 06:33:30;;;;;;;14.77;3.40;;;20.10;99.90;;;;;;5096195;28;20048;-77
2022/08/03 06:35:56;;;;;;;11.18;3.22;;;20.10;99.90;;;;;;5095321;28;20076;-77
2022/08/03 06:38:22;;;;;;;13.85;3.50;;;20.20;99.90;;;;;;5078174;28;20048;-77
2022/08/03 06:40:47;;;;;;;13.73;3.55;;;20.30;99.90;;;;;;5095069;28;20046;-74
2022/08/03 06:43:14;;;;;;;17.42;3.92;;;20.30;99.90;;;;;;5095852;28;20077;-77
2022/08/03 06:45:40;;;;;;;12.90;3.47;;;20.40;99.90;;;;;;5094340;28;20492;-75
2022/08/03 06:48:08;;;;;;;14.85;3.67;;;20.40;99.90;;;;;;5096220;28;20044;-75
2022/08/03 06:50:35;;;;;;;14.68;3.88;;;20.90;99.90;;;;;;5096079;28;20040;-75
2022/08/03 06:53:01;;;;;;;11.15;3.28;;;20.50;99.90;;;;;;5095620;28;20044;-74
2022/08/03 06:55:27;;;;;;;11.25;3.78;;;20.50;99.90;;;;;;5095901;28;20040;-75
2022/08/03 06:57:53;;;;;;;13.38;3.63;;;20.50;99.90;;;;;;5095542;28;20125;-75
2022/08/03 07:00:19;;;;;;;14.48;3.50;;;20.50;99.90;;;;;;5093748;28;20075;-75
2022/08/03 07:02:45;;;;;;;14.70;4.10;;;20.60;99.90;;;;;;5095642;28;20051;-75
2022/08/03 07:05:11;;;;;;;10.60;3.70;;;20.80;99.90;;;;;;5094423;28;20048;-76
2022/08/03 07:07:37;;;;;;;10.00;3.40;;;20.80;99.90;;;;;;5093927;28;20051;-75
2022/08/03 07:10:05;;;;;;;12.02;3.78;;;20.80;99.90;;;;;;5093928;28;20047;-75
2022/08/03 07:12:31;;;;;;;12.68;3.65;;;20.90;99.90;;;;;;5093549;28;20046;-76
2022/08/03 07:14:58;;;;;;;15.15;3.83;;;21.00;99.90;;;;;;5095319;28;20048;-76
2022/08/03 07:17:24;;;;;;;14.18;3.80;;;21.00;99.90;;;;;;5095356;28;20465;-76
2022/08/03 07:19:50;;;;;;;9.68;3.67;;;21.10;99.90;;;;;;5094279;28;20067;-75
2022/08/03 07:22:16;;;;;;;13.10;3.88;;;21.10;99.90;;;;;;5095413;28;20059;-76
2022/08/03 07:24:41;;;;;;;12.20;3.72;;;21.20;99.90;;;;;;5095279;28;20047;-76
2022/08/03 07:27:08;;;;;;;14.43;3.85;;;21.20;99.90;;;;;;5094698;28;20044;-76
2022/08/03 07:29:35;;;;;;;9.15;3.67;;;21.20;99.90;;;;;;5093902;28;20048;-76
2022/08/03 07:32:02;;;;;;;14.38;3.65;;;21.30;99.90;;;;;;5094681;28;20139;-76
2022/08/03 07:34:27;;;;;;;15.20;3.80;;;21.30;99.90;;;;;;5094995;28;20054;-76
2022/08/03 07:36:53;;;;;;;16.13;3.78;;;21.30;99.90;;;;;;5095012;28;20044;-76
2022/08/03 07:39:19;;;;;;;13.68;4.20;;;21.40;99.90;;;;;;5095020;28;20044;-76
2022/08/03 07:41:45;;;;;;;13.98;3.88;;;21.40;99.90;;;;;;5091640;28;20377;-76
2022/08/03 07:44:11;;;;;;;11.73;3.63;;;21.40;99.90;;;;;;5092229;28;20181;-76
2022/08/03 07:46:37;;;;;;;11.48;3.70;;;21.40;99.90;;;;;;5094630;28;20040;-76
2022/08/03 07:49:02;;;;;;;12.70;4.05;;;21.50;99.90;;;;;;5093277;28;20472;-76
2022/08/03 07:51:28;;;;;;;14.88;3.83;;;21.60;99.90;;;;;;5093385;28;20184;-76
2022/08/03 07:53:56;;;;;;;12.82;3.58;;;21.70;99.90;;;;;;5127302;27;20043;-76
2022/08/03 07:56:23;;;;;;;10.93;3.65;;;21.80;99.90;;;;;;5093142;28;20043;-76
2022/08/03 07:58:49;;;;;;;12.05;3.80;;;21.80;99.90;;;;;;5094272;28;20553;-75
2022/08/03 08:01:15;;;;;;;14.95;3.67;;;22.00;99.90;;;;;;5094487;28;20054;-76
2022/08/03 08:03:41;;;;;;;16.40;4.30;;;22.00;99.90;;;;;;5094808;28;20567;-76
2022/08/03 08:06:07;;;;;;;12.90;3.40;;;22.10;99.90;;;;;;5093395;28;20048;-77
2022/08/03 08:08:32;;;;;;;14.52;3.75;;;22.10;99.90;;;;;;5094657;28;20109;-76
2022/08/03 08:10:58;;;;;;;12.80;3.53;;;22.10;99.90;;;;;;5094365;28;20032;-76
2022/08/03 08:13:24;;;;;;;15.55;3.60;;;22.20;99.90;;;;;;5094544;28;20194;-75
2022/08/03 08:15:51;;;;;;;14.60;3.80;;;22.30;99.90;;;;;;5094396;28;20139;-75
2022/08/03 08:18:17;;;;;;;17.30;3.78;;;22.40;99.90;;;;;;5093356;28;20121;-76
2022/08/03 08:20:43;;;;;;;15.60;4.07;;;22.40;99.90;;;;;;5093492;28;20044;-76
2022/08/03 08:23:08;;;;;;;16.33;3.97;;;22.40;99.90;;;;;;5094525;28;20047;-76
2022/08/03 08:25:34;;;;;;;12.35;4.03;;;22.40;99.90;;;;;;5093434;28;20536;-76
2022/08/03 08:28:02;;;;;;;10.85;3.60;;;22.50;99.90;;;;;;5095321;28;20036;-77
2022/08/03 08:30:28;;;;;;;10.93;3.90;;;22.60;99.90;;;;;;5093808;28;20056;-76
2022/08/03 08:32:53;;;;;;;8.35;3.50;;;22.60;99.90;;;;;;5094409;28;20127;-76
2022/08/03 08:35:19;;;;;;;12.60;3.53;;;22.80;99.90;;;;;;5094353;28;20475;-76
2022/08/03 08:37:45;;;;;;;10.13;3.65;;;22.80;99.90;;;;;;5094464;28;20040;-77
2022/08/03 08:40:12;;;;;;;13.32;3.83;;;22.80;99.90;;;;;;5092618;28;20052;-77
2022/08/03 08:42:39;;;;;;;15.60;4.28;;;22.90;99.90;;;;;;5092573;28;20051;-77
2022/08/03 08:45:07;;;;;;;11.23;4.05;;;23.00;99.90;;;;;;5093462;28;20040;-78
2022/08/03 08:47:37;;;;;;;14.43;4.07;;;23.10;99.90;;;;;;5093192;28;20083;-76
2022/08/03 08:50:03;;;;;;;14.60;3.60;;;23.00;99.90;;;;;;5093717;28;20450;-76
2022/08/03 08:52:30;;;;;;;14.57;3.80;;;23.30;99.90;;;;;;5093155;28;20036;-76
2022/08/03 08:55:03;;;;;;;13.63;4.45;;;23.60;99.90;;;;;;5093448;28;20048;-75
2022/08/03 08:57:38;;;;;;;14.20;3.63;;;23.70;99.90;;;;;;5093198;28;20377;-76
2022/08/03 09:00:09;;;;;;;13.45;3.60;;;23.90;99.90;;;;;;5093357;28;20410;-75
2022/08/03 09:02:35;;;;;;;11.93;3.60;;;24.00;99.90;;;;;;5093006;28;20093;-78
2022/08/03 09:05:02;;;;;;;12.80;3.67;;;24.20;99.90;;;;;;5093396;28;20052;-76
2022/08/03 09:07:28;;;;;;;9.07;3.40;;;24.30;99.90;;;;;;5091759;28;20040;-75
2022/08/03 09:09:54;;;;;;;14.30;3.67;;;24.50;99.90;;;;;;5092175;28;20051;-76
2022/08/03 09:12:20;;;;;;;9.18;3.50;;;24.50;99.90;;;;;;5093093;28;20401;-76
2022/08/03 09:14:45;;;;;;;8.98;3.50;;;24.60;99.90;;;;;;5092791;28;20173;-75
2022/08/03 09:17:11;;;;;;;11.73;3.90;;;24.70;99.90;;;;;;5093161;28;20051;-75
2022/08/03 09:19:37;;;;;;;10.35;3.50;;;24.60;99.90;;;;;;5090700;28;20040;-75
2022/08/03 09:22:11;;;;;;;14.70;4.18;;;24.70;99.90;;;;;;5089366;28;20445;-75
2022/08/03 09:24:54;;;;;;;14.70;4.03;;;24.80;99.90;;;;;;5091129;28;20036;-76
2022/08/03 09:27:19;;;;;;;13.20;3.58;;;25.00;99.90;;;;;;5090305;28;20106;-76
2022/08/03 09:29:50;;;;;;;14.90;3.90;;;25.20;99.90;;;;;;5093145;28;20073;-75
2022/08/03 09:32:19;;;;;;;14.13;4.18;;;25.30;99.90;;;;;;5091247;28;20059;-76
2022/08/03 09:34:47;;;;;;;11.50;3.65;;;25.40;99.90;;;;;;5092805;28;20039;-75
2022/08/03 09:37:15;;;;;;;12.35;3.95;;;25.40;99.90;;;;;;5091793;28;20097;-76
2022/08/03 09:39:41;;;;;;;13.70;4.00;;;25.50;99.90;;;;;;5092743;28;20048;-77
2022/08/03 09:42:18;;;;;;;11.50;3.70;;;25.40;99.90;;;;;;5091655;28;20511;-77
2022/08/03 09:44:47;;;;;;;13.27;4.10;;;25.40;99.90;;;;;;5092712;28;20032;-77
2022/08/03 09:47:15;;;;;;;13.77;4.30;;;25.50;99.90;;;;;;5092581;28;20040;-77
2022/08/03 09:49:55;;;;;;;12.75;4.13;;;25.60;99.90;;;;;;5091467;28;20043;-77
2022/08/03 09:52:28;;;;;;;14.30;4.35;;;25.60;99.90;;;;;;5092263;28;20608;-77
2022/08/03 09:54:54;;;;;;;10.85;3.75;;;25.80;99.90;;;;;;5091228;28;20453;-77
2022/08/03 09:57:21;;;;;;;10.40;3.90;;;25.90;99.90;;;;;;5092292;28;20082;-77
2022/08/03 09:59:47;;;;;;;10.23;3.88;;;26.10;99.90;;;;;;5092528;28;20195;-77
2022/08/03 10:02:21;;;;;;;14.77;4.30;;;26.60;99.90;;;;;;5092484;28;20122;-77
2022/08/03 10:04:49;;;;;;;13.97;3.83;;;26.80;99.90;;;;;;5092542;28;20047;-77
2022/08/03 10:07:15;;;;;;;13.20;3.60;;;27.40;99.90;;;;;;5091050;28;20123;-76
2022/08/03 10:09:56;;;;;;;12.15;3.80;;;28.40;99.90;;;;;;5092640;28;20127;-77
2022/08/03 10:12:22;;;;;;;11.57;3.60;;;30.00;99.90;;;;;;5093027;28;20044;-76
2022/08/03 10:14:48;;;;;;;11.73;3.45;;;31.40;99.90;;;;;;5091858;28;20047;-77
2022/08/03 10:17:14;;;;;;;14.50;4.22;;;33.00;99.90;;;;;;5093032;28;20049;-76
2022/08/03 10:19:40;;;;;;;10.55;3.30;;;33.20;99.90;;;;;;5092290;28;20047;-77
2022/08/03 10:22:15;;;;;;;13.10;3.20;;;34.10;99.50;;;;;;5092352;28;20048;-77
2022/08/03 10:25:01;;;;;;;8.52;3.28;;;34.60;97.20;;;;;;5092666;28;20039;-77
2022/08/03 10:27:32;;;;;;;12.40;3.53;;;35.80;96.70;;;;;;5092076;28;20044;-78
2022/08/03 10:30:03;;;;;;;14.75;3.28;;;36.90;94.30;;;;;;5092308;28;20086;-78
2022/08/03 10:32:42;;;;;;;14.40;3.90;;;37.60;93.60;;;;;;5092277;28;20052;-76
2022/08/03 10:35:13;;;;;;;10.30;3.10;;;38.80;93.50;;;;;;5092432;28;20036;-76
2022/08/03 10:37:58;;;;;;;10.13;3.28;;;39.10;91.80;;;;;;5092181;28;20082;-76
2022/08/03 10:40:26;;;;;;;;;;;41.70;90.90;;;;;;5091447;28;20040;-76
2022/08/03 10:42:58;;;;;;;10.30;3.00;;;42.90;89.60;;;;;;5091988;28;19920;-77
2022/08/03 10:45:26;;;;;;;10.65;2.90;;;43.90;89.40;;;;;;5092220;28;20075;-77
2022/08/03 10:47:54;;;;;;;11.90;3.30;;;43.90;84.80;;;;;;5091803;28;20485;-76
2022/08/03 10:50:23;;;;;;;10.25;3.05;;;44.40;85.60;;;;;;5124441;28;20036;-77
2022/08/03 10:53:01;;;;;;;10.50;3.22;;;44.00;84.30;;;;;;5092112;28;20040;-76
2022/08/03 10:58:35;;;;;;;11.60;3.58;;;41.70;84.10;;;;;;5095510;28;20048;-76
2022/08/03 11:01:03;;;;;;;11.77;3.25;;;40.30;85.40;;;;;;5095216;28;20044;-76
2022/08/03 11:03:28;;;;;;;10.40;3.40;;;39.10;87.10;;;;;;5094247;28;20044;-76
2022/08/03 11:06:17;;;;;;;14.98;3.22;;;38.80;85.10;;;;;;5095323;28;20509;-76
2022/08/03 11:08:44;;;;;;;11.60;3.28;;;38.30;86.80;;;;;;5095356;28;20047;-76
2022/08/03 11:11:15;;;;;;;12.23;3.00;;;37.80;88.60;;;;;;5094896;28;20040;-76
2022/08/03 11:14:01;;;;;;;12.55;3.50;;;37.80;90.00;;;;;;5094275;28;20048;-76
2022/08/03 11:16:28;;;;;;;11.93;3.67;;;38.20;88.90;;;;;;5093326;28;20044;-76
2022/08/03 11:18:58;;;;;;;12.43;3.70;;;38.40;89.40;;;;;;5093827;28;20059;-76
2022/08/03 11:21:48;;;;;;;15.13;3.50;;;37.60;88.10;;;;;;5095286;28;20048;-77
2022/08/03 11:24:36;;;;;;;15.80;3.80;;;39.20;89.00;;;;;;5094977;28;20048;-78
2022/08/03 11:27:25;;;;;;;12.95;3.80;;;40.60;86.20;;;;;;5094790;28;20048;-75
2022/08/03 11:29:59;;;;;;;13.27;3.90;;;40.10;86.00;;;;;;5085885;28;20067;-77
2022/08/03 11:32:38;;;;;;;12.02;3.38;;;41.90;86.10;;;;;;5095162;28;20157;-75
2022/08/03 11:35:16;;;;;;;14.45;3.00;;;44.90;83.80;;;;;;5094230;28;20044;-75
2022/08/03 11:37:57;;;;;;;13.38;3.83;;;47.00;79.40;;;;;;5094530;28;20043;-75
2022/08/03 11:40:49;;;;;;;13.63;3.60;;;45.20;79.70;;;;;;5094788;28;20520;-75
2022/08/03 11:43:44;;;;;;;13.00;3.60;;;48.20;79.50;;;;;;5095106;28;20036;-76
2022/08/03 11:46:16;;;;;;;14.73;3.83;;;49.60;75.10;;;;;;5094008;28;20063;-76
2022/08/03 11:48:47;;;;;;;17.15;3.90;;;49.00;75.00;;;;;;5094970;28;20511;-76
2022/08/03 11:51:26;;;;;;;11.70;3.65;;;46.50;73.40;;;;;;5094594;28;20082;-75
2022/08/03 11:54:03;;;;;;;16.63;3.92;;;47.00;74.20;;;;;;5094597;28;20571;-75
2022/08/03 11:56:46;;;;;;;21.83;4.38;;;45.10;74.40;;;;;;5094582;28;20052;-76
2022/08/03 11:59:12;;;;;;;17.92;4.20;;;45.30;74.80;;;;;;5094374;28;20040;-76
2022/08/03 12:01:38;;;;;;;14.38;3.70;;;45.80;74.30;;;;;;5094454;28;20082;-76
2022/08/03 12:04:05;;;;;;;16.15;3.78;;;45.00;73.00;;;;;;5094203;28;20055;-76
2022/08/03 12:06:53;;;;;;;11.48;3.58;;;44.10;73.60;;;;;;5093646;28;20416;-76
2022/08/03 12:09:16;;;;;;;14.50;4.18;;;45.10;74.10;;;;;;5094135;28;20054;-76
2022/08/03 12:11:46;;;;;;;16.63;3.80;;;45.30;74.20;;;;;;5094024;28;20101;-75
2022/08/03 12:14:16;;;;;;;14.50;4.20;;;44.40;73.90;;;;;;5091853;28;20522;-76
2022/08/03 12:16:46;;;;;;;16.77;3.70;;;44.70;73.70;;;;;;5092430;28;20100;-76
2022/08/03 12:19:12;;;;;;;16.58;3.60;;;44.90;73.90;;;;;;5094046;28;20140;-76
2022/08/03 12:21:50;;;;;;;14.90;3.42;;;44.40;73.00;;;;;;5094048;28;20040;-76
2022/08/03 12:24:16;;;;;;;15.55;3.78;;;44.00;74.00;;;;;;5093706;28;20052;-76
2022/08/03 12:26:46;;;;;;;15.32;3.70;;;44.20;72.90;;;;;;5092372;28;20055;-77
2022/08/03 12:29:19;;;;;;;11.60;3.45;;;43.60;73.90;;;;;;5094046;28;20118;-75
2022/08/03 12:31:46;;;;;;;14.88;3.95;;;42.60;73.90;;;;;;5093537;28;20063;-75
2022/08/03 12:34:12;;;;;;;13.13;3.28;;;41.80;75.30;;;;;;5093430;28;20055;-75
2022/08/03 12:36:53;;;;;;;15.75;3.30;;;39.60;75.60;;;;;;5092498;28;20051;-75
2022/08/03 12:39:23;;;;;;;13.98;3.42;;;38.30;77.20;;;;;;5093744;28;20119;-77
2022/08/03 12:41:53;;;;;;;22.08;3.92;;;36.40;79.60;;;;;;5093764;28;20037;-77
2022/08/03 12:44:33;;;;;;;16.55;3.45;;;35.10;81.10;;;;;;5093561;28;20070;-78
2022/08/03 12:47:00;;;;;;;15.27;3.65;;;34.90;82.50;;;;;;5093641;28;20044;-77
2022/08/03 12:49:26;;;;;;;14.50;3.83;;;34.20;83.60;;;;;;5091827;28;20400;-77
2022/08/03 12:51:52;;;;;;;14.80;3.90;;;33.50;84.70;;;;;;5093499;28;20345;-77
2022/08/03 12:54:20;;;;;;;13.63;4.13;;;33.30;85.70;;;;;;5091695;28;20048;-77
2022/08/03 12:57:02;;;;;;;17.15;3.90;;;32.70;86.50;;;;;;5093253;28;20179;-77
2022/08/03 12:59:31;;;;;;;15.95;4.00;;;32.70;86.00;;;;;;5093043;28;20412;-77